createdAt,value
2022-12-24T00:01:18.851Z,5.53
2022-12-24T00:03:45.882Z,6.60
2022-12-24T00:06:24.108Z,5.72
2022-12-24T00:08:51.999Z,8.23
2022-12-24T00:11:19.879Z,8.55
2022-12-24T00:13:47.250Z,5.38
2022-12-24T00:16:14.666Z,5.43
2022-12-24T00:18:46.270Z,6.57
2022-12-24T00:21:15.586Z,4.88
2022-12-24T00:23:43.399Z,3.45
2022-12-24T00:26:11.020Z,5.90
2022-12-24T00:28:38.060Z,3.95
2022-12-24T00:31:11.246Z,4.55
2022-12-24T00:33:38.741Z,3.58
2022-12-24T00:36:06.791Z,7.20
2022-12-24T00:38:33.741Z,4.18
2022-12-24T00:41:06.472Z,4.75
2022-12-24T00:43:33.420Z,4.75
2022-12-24T00:46:00.457Z,5.75
2022-12-24T00:48:27.394Z,3.35
2022-12-24T00:50:54.377Z,5.80
2022-12-24T00:53:21.303Z,3.75
2022-12-24T00:55:48.345Z,5.32
2022-12-24T00:58:15.278Z,5.65
2022-12-24T01:00:42.161Z,7.75
2022-12-24T01:03:09.152Z,7.15
2022-12-24T01:05:36.175Z,7.72
2022-12-24T01:08:03.236Z,7.53
2022-12-24T01:10:30.244Z,6.50
2022-12-24T01:12:57.267Z,6.53
2022-12-24T01:15:24.202Z,6.78
2022-12-24T01:17:51.201Z,8.68
2022-12-24T01:20:18.769Z,10.05
2022-12-24T01:22:46.143Z,8.18
2022-12-24T01:25:13.273Z,6.43
2022-12-24T01:27:40.171Z,9.18
2022-12-24T01:30:12.495Z,7.78
2022-12-24T01:32:39.441Z,9.15
2022-12-24T01:35:06.941Z,7.57
2022-12-24T01:37:33.809Z,5.82
2022-12-24T01:40:19.267Z,7.13
2022-12-24T01:43:07.778Z,8.18
2022-12-24T01:45:37.575Z,8.70
2022-12-24T01:48:07.716Z,10.40
2022-12-24T01:50:35.279Z,11.85
2022-12-24T01:53:04.530Z,7.30
2022-12-24T01:55:31.568Z,5.68
2022-12-24T01:58:01.345Z,8.32
2022-12-24T02:00:28.300Z,7.50
2022-12-24T02:02:55.850Z,7.45
2022-12-24T02:05:33.964Z,8.98
2022-12-24T02:08:04.857Z,8.80
2022-12-24T02:10:31.889Z,8.88
2022-12-24T02:13:02.138Z,6.43
2022-12-24T02:16:05.410Z,7.40
2022-12-24T02:18:50.925Z,9.65
2022-12-24T02:24:28.055Z,9.18
2022-12-24T02:27:21.189Z,11.32
2022-12-24T02:30:23.502Z,6.45
2022-12-24T02:32:56.939Z,6.70
2022-12-24T02:35:34.585Z,10.57
2022-12-24T02:38:28.297Z,7.38
2022-12-24T02:41:16.391Z,10.43
2022-12-24T02:43:46.626Z,4.78
2022-12-24T02:46:24.284Z,6.10
2022-12-24T02:48:51.801Z,7.93
2022-12-24T02:51:24.430Z,5.88
2022-12-24T02:53:52.255Z,6.53
2022-12-24T02:56:57.481Z,7.65
2022-12-24T03:00:00.635Z,8.50
2022-12-24T03:02:43.443Z,8.82
2022-12-24T03:05:28.143Z,12.23
2022-12-24T03:08:20.928Z,6.68
2022-12-24T03:10:57.783Z,6.40
2022-12-24T03:13:27.120Z,6.43
2022-12-24T03:15:54.824Z,5.22
2022-12-24T03:18:26.617Z,10.25
2022-12-24T03:21:11.643Z,8.02
2022-12-24T03:23:38.841Z,7.68
2022-12-24T03:26:10.698Z,7.03
2022-12-24T03:28:41.076Z,7.50
2022-12-24T03:31:09.733Z,6.20
2022-12-24T03:33:37.069Z,8.30
2022-12-24T03:36:05.606Z,8.50
2022-12-24T03:38:32.993Z,5.25
2022-12-24T03:41:00.412Z,4.78
2022-12-24T03:43:27.612Z,7.65
2022-12-24T03:45:54.760Z,7.80
2022-12-24T03:48:22.646Z,8.68
2022-12-24T03:50:51.838Z,5.57
2022-12-24T03:53:18.742Z,8.63
2022-12-24T03:55:47.115Z,5.30
2022-12-24T03:58:14.054Z,7.15
2022-12-24T04:00:41.010Z,6.75
2022-12-24T04:03:08.004Z,5.78
2022-12-24T04:05:34.929Z,7.60
2022-12-24T04:08:01.836Z,7.18
2022-12-24T04:10:28.721Z,7.40
2022-12-24T04:12:55.613Z,3.00
2022-12-24T04:15:22.490Z,3.15
2022-12-24T04:17:49.333Z,4.38
2022-12-24T04:20:16.294Z,6.78
2022-12-24T04:22:43.156Z,3.80
2022-12-24T04:25:10.416Z,9.40
2022-12-24T04:27:37.274Z,5.88
2022-12-24T04:30:04.899Z,6.82
2022-12-24T04:32:31.778Z,3.65
2022-12-24T04:34:58.651Z,6.35
2022-12-24T04:37:25.525Z,6.88
2022-12-24T04:39:52.357Z,4.68
2022-12-24T04:42:19.343Z,7.47
2022-12-24T04:44:46.262Z,6.40
2022-12-24T04:47:13.182Z,4.72
2022-12-24T04:49:40.156Z,5.07
2022-12-24T04:52:07.049Z,8.80
2022-12-24T04:54:33.909Z,8.15
2022-12-24T04:57:00.971Z,6.07
2022-12-24T04:59:27.834Z,5.65
2022-12-24T05:01:54.905Z,6.57
2022-12-24T05:04:21.876Z,6.97
2022-12-24T05:06:48.777Z,6.45
2022-12-24T05:09:15.683Z,6.72
2022-12-24T05:11:43.801Z,4.95
2022-12-24T05:14:10.731Z,4.15
2022-12-24T05:16:38.773Z,8.52
2022-12-24T05:19:05.779Z,7.72
2022-12-24T05:21:32.708Z,6.40
2022-12-24T05:24:18.358Z,7.68
2022-12-24T05:26:53.255Z,8.65
2022-12-24T05:29:20.824Z,4.93
2022-12-24T05:31:47.735Z,6.63
2022-12-24T05:34:16.803Z,9.48
2022-12-24T05:36:45.088Z,7.10
2022-12-24T05:39:16.860Z,6.22
2022-12-24T05:41:45.625Z,7.72
2022-12-24T05:44:13.351Z,5.75
2022-12-24T05:46:40.496Z,3.95
2022-12-24T05:49:07.713Z,4.95
2022-12-24T05:51:34.962Z,12.65
2022-12-24T05:54:02.065Z,6.53
2022-12-24T05:56:29.037Z,3.90
2022-12-24T05:58:56.178Z,5.47
2022-12-24T06:01:24.206Z,9.07
2022-12-24T06:03:52.977Z,4.00
2022-12-24T06:06:24.217Z,8.05
2022-12-24T06:08:53.889Z,5.28
2022-12-24T06:11:26.539Z,8.43
2022-12-24T06:13:54.550Z,6.75
2022-12-24T06:16:22.944Z,7.10
2022-12-24T06:18:50.498Z,6.15
2022-12-24T06:21:18.559Z,7.15
2022-12-24T06:23:46.522Z,4.32
2022-12-24T06:26:21.187Z,8.98
2022-12-24T06:28:50.046Z,4.22
2022-12-24T06:31:22.045Z,11.70
2022-12-24T06:33:49.413Z,12.07
2022-12-24T06:36:21.149Z,9.30
2022-12-24T06:38:49.256Z,7.82
2022-12-24T06:41:18.451Z,4.72
2022-12-24T06:43:52.469Z,8.85
2022-12-24T06:46:21.050Z,4.82
2022-12-24T06:48:48.279Z,6.93
2022-12-24T06:51:19.568Z,8.05
2022-12-24T06:53:47.231Z,5.68
2022-12-24T06:56:14.857Z,12.07
2022-12-24T06:58:42.635Z,8.35
2022-12-24T07:01:15.105Z,8.30
2022-12-24T07:03:42.887Z,11.70
2022-12-24T07:06:25.235Z,5.78
2022-12-24T07:08:52.819Z,8.38
2022-12-24T07:11:20.834Z,7.15
2022-12-24T07:13:48.055Z,6.90
2022-12-24T07:16:15.575Z,9.85
2022-12-24T07:18:42.769Z,9.27
2022-12-24T07:21:10.834Z,8.95
2022-12-24T07:23:37.903Z,8.68
2022-12-24T07:26:06.785Z,8.90
2022-12-24T07:28:34.200Z,6.28
2022-12-24T07:31:01.398Z,8.23
2022-12-24T07:33:28.584Z,7.85
2022-12-24T07:36:20.486Z,7.65
2022-12-24T07:38:47.994Z,6.07
2022-12-24T07:41:15.536Z,11.50
2022-12-24T07:43:42.782Z,9.48
2022-12-24T07:46:09.915Z,8.70
2022-12-24T07:48:37.075Z,8.13
2022-12-24T07:51:04.612Z,10.02
2022-12-24T07:53:32.088Z,8.68
2022-12-24T07:55:59.580Z,8.25
2022-12-24T07:58:27.121Z,7.40
2022-12-24T08:01:00.934Z,6.63
2022-12-24T08:03:28.235Z,12.23
2022-12-24T08:05:55.632Z,10.30
2022-12-24T08:08:22.645Z,9.73
2022-12-24T08:10:49.788Z,9.90
2022-12-24T08:13:17.298Z,7.70
2022-12-24T08:15:45.051Z,9.25
2022-12-24T08:18:12.369Z,6.78
2022-12-24T08:20:41.338Z,5.13
2022-12-24T08:23:08.978Z,5.13
2022-12-24T08:25:37.094Z,7.88
2022-12-24T08:28:05.722Z,4.93
2022-12-24T08:30:32.954Z,6.40
2022-12-24T08:32:59.859Z,7.35
2022-12-24T08:35:26.872Z,7.75
2022-12-24T08:37:54.132Z,6.95
2022-12-24T08:40:21.053Z,8.65
2022-12-24T08:42:48.104Z,7.80
2022-12-24T08:45:15.205Z,7.28
2022-12-24T08:47:42.574Z,9.95
2022-12-24T08:50:12.991Z,8.27
2022-12-24T08:52:40.137Z,9.73
2022-12-24T08:55:07.885Z,12.15
2022-12-24T08:57:38.413Z,9.65
2022-12-24T09:00:07.196Z,9.70
2022-12-24T09:02:34.361Z,10.27
2022-12-24T09:05:01.610Z,10.10
2022-12-24T09:07:28.548Z,8.27
2022-12-24T09:09:55.500Z,12.20
2022-12-24T09:12:22.485Z,12.60
2022-12-24T09:14:51.922Z,7.57
2022-12-24T09:17:18.819Z,11.38
2022-12-24T09:19:46.449Z,9.70
2022-12-24T09:22:13.903Z,7.57
2022-12-24T09:24:40.893Z,10.23
2022-12-24T09:27:08.020Z,8.38
2022-12-24T09:29:35.510Z,9.05
2022-12-24T09:32:02.608Z,9.43
2022-12-24T09:34:30.620Z,8.40
2022-12-24T09:36:57.810Z,5.43
2022-12-24T09:39:24.741Z,10.15
2022-12-24T09:42:34.007Z,9.60
2022-12-24T09:45:31.224Z,9.02
2022-12-24T09:48:18.471Z,8.18
2022-12-24T09:51:06.639Z,11.75
2022-12-24T09:54:17.805Z,12.95
2022-12-24T09:56:47.212Z,8.45
2022-12-24T09:59:20.269Z,7.95
2022-12-24T10:01:49.512Z,12.48
2022-12-24T10:04:21.121Z,11.38
2022-12-24T10:07:07.864Z,16.92
2022-12-24T10:09:59.086Z,11.52
2022-12-24T10:13:01.748Z,9.80
2022-12-24T10:15:39.646Z,10.48
2022-12-24T10:18:24.866Z,10.55
2022-12-24T10:21:15.550Z,9.57
2022-12-24T10:23:59.864Z,14.00
2022-12-24T10:26:52.552Z,13.68
2022-12-24T10:29:33.859Z,13.32
2022-12-24T10:32:09.962Z,11.00
2022-12-24T10:34:46.749Z,12.18
2022-12-24T10:37:25.784Z,13.30
2022-12-24T10:39:53.144Z,11.93
2022-12-24T10:42:25.230Z,8.48
2022-12-24T10:45:01.118Z,11.70
2022-12-24T10:47:28.938Z,11.65
2022-12-24T10:50:10.329Z,12.13
2022-12-24T10:52:43.303Z,12.35
2022-12-24T10:55:19.181Z,12.30
2022-12-24T10:58:07.494Z,9.45
2022-12-24T11:00:36.827Z,9.63
2022-12-24T11:03:12.666Z,10.68
2022-12-24T11:05:40.594Z,12.02
2022-12-24T11:08:13.151Z,11.25
2022-12-24T11:10:55.335Z,7.57
2022-12-24T11:13:38.459Z,6.05
2022-12-24T11:16:11.529Z,8.02
2022-12-24T11:18:51.545Z,9.80
2022-12-24T11:21:30.858Z,13.23
2022-12-24T11:24:11.962Z,8.10
2022-12-24T11:26:42.871Z,9.43
2022-12-24T11:29:20.712Z,12.50
2022-12-24T11:31:49.307Z,7.25
2022-12-24T11:34:29.341Z,7.70
2022-12-24T11:37:23.949Z,6.35
2022-12-24T11:40:00.462Z,9.57
2022-12-24T11:42:36.972Z,7.60
2022-12-24T11:45:18.166Z,7.57
2022-12-24T11:47:46.193Z,5.93
2022-12-24T11:50:36.736Z,7.57
2022-12-24T11:53:03.695Z,4.50
2022-12-24T11:55:49.426Z,4.38
2022-12-24T11:58:47.256Z,5.53
2022-12-24T12:01:38.388Z,6.10
2022-12-24T12:04:18.384Z,3.60
2022-12-24T12:06:50.754Z,8.05
2022-12-24T12:09:28.518Z,6.57
2022-12-24T12:12:27.908Z,5.15
2022-12-24T12:15:03.774Z,6.72
2022-12-24T12:17:58.879Z,6.15
2022-12-24T12:20:42.070Z,5.18
2022-12-24T12:23:23.251Z,9.95
2022-12-24T12:26:11.388Z,6.45
2022-12-24T12:28:49.465Z,6.43
2022-12-24T12:31:42.528Z,6.15
2022-12-24T12:34:28.663Z,9.13
2022-12-24T12:37:28.590Z,5.28
2022-12-24T12:39:55.746Z,7.22
2022-12-24T12:42:39.514Z,6.30
2022-12-24T12:45:45.253Z,7.03
2022-12-24T12:48:27.106Z,6.75
2022-12-24T12:51:25.506Z,6.45
2022-12-24T12:54:35.265Z,8.05
2022-12-24T12:57:15.060Z,6.65
2022-12-24T13:00:04.446Z,6.38
2022-12-24T13:02:43.531Z,6.50
2022-12-24T13:05:34.414Z,4.28
2022-12-24T13:08:12.932Z,5.53
2022-12-24T13:11:10.983Z,7.07
2022-12-24T13:14:23.599Z,8.07
2022-12-24T13:17:02.402Z,8.02
2022-12-24T13:20:29.667Z,4.85
2022-12-24T13:22:56.609Z,4.90
2022-12-24T13:25:40.268Z,5.13
2022-12-24T13:28:22.632Z,11.35
2022-12-24T13:31:19.761Z,9.20
2022-12-24T13:33:53.389Z,4.68
2022-12-24T13:36:22.590Z,6.07
2022-12-24T13:38:58.003Z,6.93
2022-12-24T13:41:39.426Z,7.25
2022-12-24T13:44:09.186Z,6.18
2022-12-24T13:46:52.530Z,5.93
2022-12-24T13:49:43.217Z,8.00
2022-12-24T13:52:14.299Z,8.70
2022-12-24T13:54:59.386Z,9.30
2022-12-24T13:57:52.234Z,8.40
2022-12-24T14:00:21.875Z,7.82
2022-12-24T14:03:22.251Z,4.65
2022-12-24T14:05:58.648Z,2.97
2022-12-24T14:08:28.716Z,5.65
2022-12-24T14:11:08.075Z,6.28
2022-12-24T14:13:40.873Z,6.57
2022-12-24T14:16:32.247Z,4.28
2022-12-24T14:19:23.422Z,4.15
2022-12-24T14:22:01.354Z,8.60
2022-12-24T14:24:41.284Z,6.55
2022-12-24T14:27:49.116Z,4.40
2022-12-24T14:30:28.761Z,8.52
2022-12-24T14:32:56.346Z,3.80
2022-12-24T14:35:37.002Z,9.27
2022-12-24T14:38:18.558Z,5.50
2022-12-24T14:41:40.924Z,5.82
2022-12-24T14:44:37.597Z,5.72
2022-12-24T14:47:28.534Z,3.40
2022-12-24T14:50:08.008Z,7.32
2022-12-24T14:53:28.645Z,5.78
2022-12-24T14:55:55.575Z,5.03
2022-12-24T14:58:33.639Z,4.78
2022-12-24T15:01:18.811Z,4.63
2022-12-24T15:03:45.957Z,5.15
2022-12-24T15:06:14.650Z,5.80
2022-12-24T15:08:50.107Z,5.57
2022-12-24T15:11:22.317Z,6.10
2022-12-24T15:14:00.556Z,7.60
2022-12-24T15:16:33.960Z,5.32
2022-12-24T15:19:23.463Z,4.82
2022-12-24T15:21:50.780Z,6.65
2022-12-24T15:24:35.096Z,5.38
2022-12-24T15:27:23.245Z,7.25
2022-12-24T15:29:55.668Z,5.13
2022-12-24T15:32:23.430Z,5.15
2022-12-24T15:34:54.550Z,5.70
2022-12-24T15:37:29.556Z,6.93
2022-12-24T15:40:20.481Z,5.07
2022-12-24T15:42:47.625Z,6.97
2022-12-24T15:45:28.102Z,5.85
2022-12-24T15:48:10.635Z,5.97
2022-12-24T15:50:49.076Z,5.85
2022-12-24T15:53:35.911Z,5.75
2022-12-24T15:56:32.311Z,6.78
2022-12-24T15:59:36.092Z,7.00
2022-12-24T16:02:25.337Z,6.90
2022-12-24T16:04:52.715Z,8.98
2022-12-24T16:07:47.447Z,5.90
2022-12-24T16:10:25.910Z,6.20
2022-12-24T16:12:52.953Z,4.13
2022-12-24T16:15:19.921Z,4.40
2022-12-24T16:17:49.508Z,3.38
2022-12-24T16:20:22.624Z,4.50
2022-12-24T16:22:51.359Z,3.67
2022-12-24T16:25:29.550Z,3.47
2022-12-24T16:28:00.607Z,3.75
2022-12-24T16:30:28.467Z,2.83
2022-12-24T16:32:55.395Z,2.63
2022-12-24T16:35:36.521Z,6.63
2022-12-24T16:38:04.256Z,4.95
2022-12-24T16:40:31.254Z,3.25
2022-12-24T16:43:16.992Z,5.30
2022-12-24T16:45:46.322Z,4.68
2022-12-24T16:48:25.321Z,6.20
2022-12-24T16:50:54.096Z,7.15
2022-12-24T16:53:23.689Z,3.50
2022-12-24T16:55:51.761Z,2.95
2022-12-24T16:58:19.750Z,4.82
2022-12-24T17:00:46.956Z,7.50
2022-12-24T17:03:14.865Z,2.45
2022-12-24T17:05:44.088Z,4.13
2022-12-24T17:08:12.805Z,2.13
2022-12-24T17:10:40.699Z,5.75
2022-12-24T17:13:07.778Z,1.65
2022-12-24T17:15:35.020Z,5.10
2022-12-24T17:18:01.906Z,5.07
2022-12-24T17:20:28.875Z,4.72
2022-12-24T17:22:55.920Z,3.30
2022-12-24T17:25:23.752Z,7.50
2022-12-24T17:27:50.784Z,4.35
2022-12-24T17:30:17.944Z,5.20
2022-12-24T17:32:48.010Z,2.85
2022-12-24T17:35:17.943Z,3.67
2022-12-24T17:37:44.806Z,2.80
2022-12-24T17:40:14.495Z,3.40
2022-12-24T17:42:41.361Z,4.13
2022-12-24T17:45:11.147Z,3.60
2022-12-24T17:47:38.074Z,2.33
2022-12-24T17:50:07.676Z,3.45
2022-12-24T17:52:46.133Z,5.40
2022-12-24T17:55:19.427Z,7.40
2022-12-24T17:57:46.329Z,3.45
2022-12-24T18:00:14.412Z,5.20
2022-12-24T18:02:41.446Z,3.30
2022-12-24T18:05:08.585Z,2.30
2022-12-24T18:07:35.604Z,5.05
2022-12-24T18:10:04.605Z,6.72
2022-12-24T18:12:31.503Z,4.00
2022-12-24T18:14:58.355Z,4.00
2022-12-24T18:17:25.233Z,4.82
2022-12-24T18:19:52.169Z,4.20
2022-12-24T18:22:19.133Z,4.53
2022-12-24T18:24:45.967Z,7.70
2022-12-24T18:27:12.825Z,3.45
2022-12-24T18:29:42.281Z,3.45
2022-12-24T18:32:09.311Z,5.50
2022-12-24T18:34:36.988Z,5.35
2022-12-24T18:37:03.939Z,7.28
2022-12-24T18:39:30.881Z,6.50
2022-12-24T18:41:57.721Z,6.78
2022-12-24T18:44:25.685Z,2.80
2022-12-24T18:46:52.854Z,8.00
2022-12-24T18:49:19.875Z,4.75
2022-12-24T18:51:46.825Z,7.45
2022-12-24T18:54:13.682Z,7.78
2022-12-24T18:56:40.639Z,7.60
2022-12-24T18:59:07.771Z,5.63
2022-12-24T19:01:35.662Z,3.45
2022-12-24T19:04:03.027Z,3.85
2022-12-24T19:06:30.333Z,5.47
2022-12-24T19:09:00.281Z,5.45
2022-12-24T19:11:31.357Z,5.15
2022-12-24T19:14:00.288Z,4.15
2022-12-24T19:16:34.205Z,9.63
2022-12-24T19:19:04.358Z,7.05
2022-12-24T19:21:31.941Z,8.93
2022-12-24T19:23:58.983Z,5.65
2022-12-24T19:26:26.052Z,5.30
2022-12-24T19:28:54.687Z,6.35
2022-12-24T19:31:25.032Z,9.82
2022-12-24T19:33:56.083Z,6.45
2022-12-24T19:36:27.594Z,7.13
2022-12-24T19:38:56.446Z,6.22
2022-12-24T19:41:29.341Z,5.53
2022-12-24T19:44:00.306Z,5.80
2022-12-24T19:46:31.303Z,9.73
2022-12-24T19:49:04.960Z,7.25
2022-12-24T19:51:32.608Z,6.28
2022-12-24T19:54:00.841Z,9.70
2022-12-24T19:56:31.529Z,9.90
2022-12-24T19:59:00.208Z,6.85
2022-12-24T20:01:30.391Z,10.77
2022-12-24T20:03:57.772Z,7.25
2022-12-24T20:06:29.365Z,9.18
2022-12-24T20:09:02.364Z,8.10
2022-12-24T20:11:29.986Z,7.32
2022-12-24T20:14:02.730Z,9.00
2022-12-24T20:16:30.676Z,9.40
2022-12-24T20:19:05.259Z,10.80
2022-12-24T20:21:32.731Z,9.82
2022-12-24T20:23:59.725Z,9.77
2022-12-24T20:26:29.472Z,13.38
2022-12-24T20:28:56.693Z,10.85
2022-12-24T20:31:27.219Z,9.85
2022-12-24T20:33:55.374Z,9.38
2022-12-24T20:36:25.361Z,7.07
2022-12-24T20:38:53.219Z,9.80
2022-12-24T20:41:23.272Z,9.43
2022-12-24T20:43:50.987Z,11.60
2022-12-24T20:46:20.483Z,10.73
2022-12-24T20:48:47.505Z,8.98
2022-12-24T20:51:24.773Z,8.88
2022-12-24T20:53:55.113Z,10.25
2022-12-24T20:56:22.725Z,12.75
2022-12-24T20:58:50.355Z,12.68
2022-12-24T21:01:51.786Z,8.73
2022-12-24T21:04:27.929Z,8.15
2022-12-24T21:06:54.912Z,6.85
2022-12-24T21:09:21.911Z,13.27
2022-12-24T21:11:49.380Z,14.32
2022-12-24T21:14:24.528Z,18.35
2022-12-24T21:19:24.026Z,9.88
2022-12-24T21:21:51.605Z,10.85
2022-12-24T21:24:18.659Z,9.68
2022-12-24T21:26:45.595Z,13.07
2022-12-24T21:29:12.679Z,12.75
2022-12-24T21:31:39.647Z,14.50
2022-12-24T21:34:07.117Z,10.88
2022-12-24T21:36:33.985Z,14.45
2022-12-24T21:39:01.109Z,11.90
2022-12-24T21:41:28.091Z,14.40
2022-12-24T21:43:55.198Z,13.05
2022-12-24T21:46:25.765Z,8.15
2022-12-24T21:49:13.389Z,11.07
2022-12-24T21:51:43.999Z,14.68
2022-12-24T21:54:31.303Z,9.85
2022-12-24T21:57:21.026Z,8.75
2022-12-24T21:59:53.618Z,14.48
2022-12-24T22:02:27.584Z,13.50
2022-12-24T22:04:54.909Z,15.13
2022-12-24T22:07:44.882Z,9.40
2022-12-24T22:10:32.758Z,6.95
2022-12-24T22:13:03.509Z,10.05
2022-12-24T22:15:30.489Z,12.25
2022-12-24T22:17:57.582Z,8.30
2022-12-24T22:20:25.034Z,8.50
2022-12-24T22:22:52.066Z,6.20
2022-12-24T22:25:19.128Z,5.82
2022-12-24T22:27:46.065Z,5.63
2022-12-24T22:30:13.234Z,8.00
2022-12-24T22:32:40.084Z,12.20
2022-12-24T22:35:07.281Z,9.45
2022-12-24T22:37:34.175Z,10.65
2022-12-24T22:40:01.192Z,9.88
2022-12-24T22:42:30.501Z,8.98
2022-12-24T22:44:57.330Z,11.93
2022-12-24T22:47:24.326Z,9.88
2022-12-24T22:49:51.215Z,12.07
2022-12-24T22:52:18.441Z,10.02
2022-12-24T22:54:45.640Z,7.43
2022-12-24T22:57:12.577Z,7.28
2022-12-24T22:59:40.046Z,15.07
2022-12-24T23:02:07.716Z,10.27
2022-12-24T23:04:37.329Z,10.23
2022-12-24T23:07:07.311Z,11.82
2022-12-24T23:09:34.562Z,14.02
2022-12-24T23:12:02.497Z,12.18
2022-12-24T23:14:48.104Z,11.98
2022-12-24T23:17:15.793Z,18.73
2022-12-24T23:19:42.806Z,16.25
2022-12-24T23:22:11.112Z,14.27
2022-12-24T23:24:39.257Z,19.48
2022-12-24T23:27:06.405Z,20.77
2022-12-24T23:29:34.201Z,28.67
2022-12-24T23:32:01.227Z,20.83
2022-12-24T23:34:28.222Z,17.88
2022-12-24T23:36:55.141Z,14.57
2022-12-24T23:39:22.049Z,9.77
2022-12-24T23:41:48.996Z,11.20
2022-12-24T23:44:15.877Z,8.65
2022-12-24T23:46:42.777Z,9.05
2022-12-24T23:49:14.843Z,10.57
2022-12-24T23:51:42.105Z,11.73
2022-12-24T23:54:09.116Z,10.55
2022-12-24T23:56:36.272Z,8.35
2022-12-24T23:59:03.852Z,12.07
